sensor_id;sensor_type;location;lat;lon;timestamp;P1;durP1;ratioP1;P2;durP2;ratioP2
21780;SDS011;52576;53.614;9.894;2022-11-20T00:00:33;6.47;;;4.00;;
21780;SDS011;52576;53.614;9.894;2022-11-20T00:01:35;8.40;;;3.92;;
21780;SDS011;52576;53.614;9.894;2022-11-20T00:02:39;7.03;;;3.67;;
21780;SDS011;52576;53.614;9.894;2022-11-20T00:03:42;8.98;;;4.07;;
21780;SDS011;52576;53.614;9.894;2022-11-20T00:04:48;6.40;;;3.95;;
21780;SDS011;52576;53.614;9.894;2022-11-20T00:05:51;7.75;;;4.28;;
21780;SDS011;52576;53.614;9.894;2022-11-20T00:06:54;8.90;;;3.97;;
21780;SDS011;52576;53.614;9.894;2022-11-20T00:07:57;5.47;;;3.40;;
21780;SDS011;52576;53.614;9.894;2022-11-20T00:08:59;6.80;;;3.67;;
21780;SDS011;52576;53.614;9.894;2022-11-20T00:10:04;5.63;;;3.72;;
21780;SDS011;52576;53.614;9.894;2022-11-20T00:11:12;5.13;;;3.22;;
21780;SDS011;52576;53.614;9.894;2022-11-20T00:12:18;4.22;;;3.25;;
21780;SDS011;52576;53.614;9.894;2022-11-20T00:13:20;8.95;;;3.55;;
21780;SDS011;52576;53.614;9.894;2022-11-20T00:14:23;5.78;;;3.75;;
21780;SDS011;52576;53.614;9.894;2022-11-20T00:15:25;9.52;;;4.18;;
21780;SDS011;52576;53.614;9.894;2022-11-20T00:16:30;8.90;;;4.05;;
21780;SDS011;52576;53.614;9.894;2022-11-20T00:17:34;6.10;;;3.50;;
21780;SDS011;52576;53.614;9.894;2022-11-20T00:18:37;6.57;;;3.45;;
21780;SDS011;52576;53.614;9.894;2022-11-20T00:19:41;5.25;;;3.40;;
21780;SDS011;52576;53.614;9.894;2022-11-20T00:20:45;6.38;;;3.40;;
21780;SDS011;52576;53.614;9.894;2022-11-20T00:21:47;8.57;;;3.35;;
21780;SDS011;52576;53.614;9.894;2022-11-20T00:22:52;6.07;;;3.55;;
21780;SDS011;52576;53.614;9.894;2022-11-20T00:23:55;7.05;;;4.20;;
21780;SDS011;52576;53.614;9.894;2022-11-20T00:24:59;5.93;;;3.70;;
21780;SDS011;52576;53.614;9.894;2022-11-20T00:26:02;4.97;;;3.63;;
21780;SDS011;52576;53.614;9.894;2022-11-20T00:27:06;6.30;;;3.75;;
21780;SDS011;52576;53.614;9.894;2022-11-20T00:28:08;7.28;;;4.25;;
21780;SDS011;52576;53.614;9.894;2022-11-20T00:29:12;8.20;;;4.15;;
21780;SDS011;52576;53.614;9.894;2022-11-20T00:30:15;8.90;;;4.57;;
21780;SDS011;52576;53.614;9.894;2022-11-20T00:31:17;9.13;;;4.70;;
21780;SDS011;52576;53.614;9.894;2022-11-20T00:32:21;8.82;;;4.03;;
21780;SDS011;52576;53.614;9.894;2022-11-20T00:33:23;13.27;;;5.95;;
21780;SDS011;52576;53.614;9.894;2022-11-20T00:34:26;14.57;;;5.97;;
21780;SDS011;52576;53.614;9.894;2022-11-20T00:35:30;17.80;;;7.85;;
21780;SDS011;52576;53.614;9.894;2022-11-20T00:36:33;20.20;;;8.68;;
21780;SDS011;52576;53.614;9.894;2022-11-20T00:37:35;15.70;;;7.47;;
21780;SDS011;52576;53.614;9.894;2022-11-20T00:38:39;15.88;;;8.27;;
21780;SDS011;52576;53.614;9.894;2022-11-20T00:39:41;10.77;;;6.00;;
21780;SDS011;52576;53.614;9.894;2022-11-20T00:40:44;8.85;;;4.88;;
21780;SDS011;52576;53.614;9.894;2022-11-20T00:41:52;9.00;;;3.72;;
21780;SDS011;52576;53.614;9.894;2022-11-20T00:42:56;8.48;;;4.30;;
21780;SDS011;52576;53.614;9.894;2022-11-20T00:43:58;7.13;;;4.10;;
21780;SDS011;52576;53.614;9.894;2022-11-20T00:45:01;7.35;;;3.55;;
21780;SDS011;52576;53.614;9.894;2022-11-20T00:46:04;5.00;;;3.28;;
21780;SDS011;52576;53.614;9.894;2022-11-20T00:47:09;5.95;;;3.50;;
21780;SDS011;52576;53.614;9.894;2022-11-20T00:48:12;6.35;;;3.83;;
21780;SDS011;52576;53.614;9.894;2022-11-20T00:49:15;6.65;;;3.70;;
21780;SDS011;52576;53.614;9.894;2022-11-20T00:50:19;6.95;;;3.58;;
21780;SDS011;52576;53.614;9.894;2022-11-20T00:51:23;5.15;;;3.40;;
21780;SDS011;52576;53.614;9.894;2022-11-20T00:52:28;6.75;;;3.30;;
21780;SDS011;52576;53.614;9.894;2022-11-20T00:53:30;6.45;;;3.53;;
21780;SDS011;52576;53.614;9.894;2022-11-20T00:55:58;6.25;;;3.33;;
21780;SDS011;52576;53.614;9.894;2022-11-20T00:57:03;6.18;;;3.63;;
21780;SDS011;52576;53.614;9.894;2022-11-20T00:58:06;7.05;;;3.45;;
21780;SDS011;52576;53.614;9.894;2022-11-20T00:59:14;7.93;;;3.28;;
21780;SDS011;52576;53.614;9.894;2022-11-20T01:00:17;6.13;;;3.35;;
21780;SDS011;52576;53.614;9.894;2022-11-20T01:01:20;5.90;;;3.38;;
21780;SDS011;52576;53.614;9.894;2022-11-20T01:02:25;8.65;;;3.47;;
21780;SDS011;52576;53.614;9.894;2022-11-20T01:03:30;11.75;;;4.03;;
21780;SDS011;52576;53.614;9.894;2022-11-20T01:04:34;4.88;;;3.30;;
21780;SDS011;52576;53.614;9.894;2022-11-20T01:05:36;6.88;;;3.47;;
21780;SDS011;52576;53.614;9.894;2022-11-20T01:06:40;6.10;;;3.67;;
21780;SDS011;52576;53.614;9.894;2022-11-20T01:07:43;5.68;;;3.63;;
21780;SDS011;52576;53.614;9.894;2022-11-20T01:08:46;6.38;;;3.58;;
21780;SDS011;52576;53.614;9.894;2022-11-20T01:09:49;7.57;;;3.50;;
21780;SDS011;52576;53.614;9.894;2022-11-20T01:10:52;6.30;;;3.50;;
21780;SDS011;52576;53.614;9.894;2022-11-20T01:11:54;8.65;;;4.00;;
21780;SDS011;52576;53.614;9.894;2022-11-20T01:12:57;6.03;;;3.28;;
21780;SDS011;52576;53.614;9.894;2022-11-20T01:14:15;5.80;;;3.58;;
21780;SDS011;52576;53.614;9.894;2022-11-20T01:15:20;5.50;;;3.42;;
21780;SDS011;52576;53.614;9.894;2022-11-20T01:16:24;7.97;;;3.70;;
21780;SDS011;52576;53.614;9.894;2022-11-20T01:17:28;4.55;;;3.30;;
21780;SDS011;52576;53.614;9.894;2022-11-20T01:18:32;9.40;;;3.65;;
21780;SDS011;52576;53.614;9.894;2022-11-20T01:19:36;6.50;;;3.47;;
21780;SDS011;52576;53.614;9.894;2022-11-20T01:20:39;6.35;;;3.72;;
21780;SDS011;52576;53.614;9.894;2022-11-20T01:21:43;6.53;;;3.50;;
21780;SDS011;52576;53.614;9.894;2022-11-20T01:22:48;8.18;;;3.58;;
21780;SDS011;52576;53.614;9.894;2022-11-20T01:23:50;6.22;;;3.75;;
21780;SDS011;52576;53.614;9.894;2022-11-20T01:24:54;5.50;;;3.65;;
21780;SDS011;52576;53.614;9.894;2022-11-20T01:25:56;8.63;;;3.50;;
21780;SDS011;52576;53.614;9.894;2022-11-20T01:26:59;6.35;;;3.47;;
21780;SDS011;52576;53.614;9.894;2022-11-20T01:28:02;8.63;;;3.67;;
21780;SDS011;52576;53.614;9.894;2022-11-20T01:29:05;8.00;;;3.45;;
21780;SDS011;52576;53.614;9.894;2022-11-20T01:30:10;5.63;;;3.63;;
21780;SDS011;52576;53.614;9.894;2022-11-20T01:31:13;8.10;;;3.95;;
21780;SDS011;52576;53.614;9.894;2022-11-20T01:32:18;6.57;;;3.88;;
21780;SDS011;52576;53.614;9.894;2022-11-20T01:33:20;9.52;;;3.88;;
21780;SDS011;52576;53.614;9.894;2022-11-20T01:34:23;6.22;;;3.55;;
21780;SDS011;52576;53.614;9.894;2022-11-20T01:35:26;5.25;;;3.58;;
21780;SDS011;52576;53.614;9.894;2022-11-20T01:36:30;6.45;;;3.97;;
21780;SDS011;52576;53.614;9.894;2022-11-20T01:37:36;7.47;;;3.92;;
21780;SDS011;52576;53.614;9.894;2022-11-20T01:38:38;6.70;;;4.13;;
21780;SDS011;52576;53.614;9.894;2022-11-20T01:39:42;6.45;;;3.83;;
21780;SDS011;52576;53.614;9.894;2022-11-20T01:40:45;8.10;;;4.20;;
21780;SDS011;52576;53.614;9.894;2022-11-20T01:41:48;5.97;;;3.70;;
21780;SDS011;52576;53.614;9.894;2022-11-20T01:43:12;8.55;;;3.95;;
21780;SDS011;52576;53.614;9.894;2022-11-20T01:44:23;8.15;;;4.05;;
21780;SDS011;52576;53.614;9.894;2022-11-20T01:45:56;8.57;;;3.80;;
21780;SDS011;52576;53.614;9.894;2022-11-20T01:47:02;5.45;;;3.60;;
21780;SDS011;52576;53.614;9.894;2022-11-20T01:48:09;9.98;;;3.90;;
21780;SDS011;52576;53.614;9.894;2022-11-20T01:49:14;10.25;;;4.22;;
21780;SDS011;52576;53.614;9.894;2022-11-20T01:50:22;6.38;;;4.15;;
21780;SDS011;52576;53.614;9.894;2022-11-20T01:51:31;8.45;;;4.07;;
21780;SDS011;52576;53.614;9.894;2022-11-20T01:52:39;8.93;;;4.20;;
21780;SDS011;52576;53.614;9.894;2022-11-20T01:53:44;8.00;;;3.97;;
21780;SDS011;52576;53.614;9.894;2022-11-20T01:54:51;8.68;;;4.25;;
21780;SDS011;52576;53.614;9.894;2022-11-20T01:55:57;8.77;;;3.92;;
21780;SDS011;52576;53.614;9.894;2022-11-20T01:57:04;6.30;;;3.88;;
21780;SDS011;52576;53.614;9.894;2022-11-20T01:58:09;7.65;;;4.20;;
21780;SDS011;52576;53.614;9.894;2022-11-20T01:59:15;5.97;;;3.67;;
21780;SDS011;52576;53.614;9.894;2022-11-20T02:00:20;7.25;;;4.10;;
21780;SDS011;52576;53.614;9.894;2022-11-20T02:01:24;7.18;;;3.70;;
21780;SDS011;52576;53.614;9.894;2022-11-20T02:02:27;8.38;;;3.90;;
21780;SDS011;52576;53.614;9.894;2022-11-20T02:03:31;8.68;;;4.00;;
21780;SDS011;52576;53.614;9.894;2022-11-20T02:04:33;6.38;;;3.78;;
21780;SDS011;52576;53.614;9.894;2022-11-20T02:05:38;5.90;;;3.88;;
21780;SDS011;52576;53.614;9.894;2022-11-20T02:06:47;6.00;;;3.67;;
21780;SDS011;52576;53.614;9.894;2022-11-20T02:07:53;7.65;;;3.88;;
21780;SDS011;52576;53.614;9.894;2022-11-20T02:08:57;6.20;;;3.38;;
21780;SDS011;52576;53.614;9.894;2022-11-20T02:10:00;6.32;;;3.83;;
21780;SDS011;52576;53.614;9.894;2022-11-20T02:11:03;7.25;;;3.90;;
21780;SDS011;52576;53.614;9.894;2022-11-20T02:12:06;7.13;;;3.70;;
21780;SDS011;52576;53.614;9.894;2022-11-20T02:13:29;6.38;;;4.03;;
21780;SDS011;52576;53.614;9.894;2022-11-20T02:14:47;11.38;;;4.32;;
21780;SDS011;52576;53.614;9.894;2022-11-20T02:15:49;7.03;;;4.20;;
21780;SDS011;52576;53.614;9.894;2022-11-20T02:16:51;6.75;;;3.70;;
21780;SDS011;52576;53.614;9.894;2022-11-20T02:17:56;5.38;;;4.03;;
21780;SDS011;52576;53.614;9.894;2022-11-20T02:19:00;7.15;;;4.15;;
21780;SDS011;52576;53.614;9.894;2022-11-20T02:20:05;6.63;;;3.42;;
21780;SDS011;52576;53.614;9.894;2022-11-20T02:21:09;11.30;;;4.00;;
21780;SDS011;52576;53.614;9.894;2022-11-20T02:22:18;6.40;;;3.78;;
21780;SDS011;52576;53.614;9.894;2022-11-20T02:23:28;5.65;;;3.50;;
21780;SDS011;52576;53.614;9.894;2022-11-20T02:24:37;6.70;;;4.07;;
21780;SDS011;52576;53.614;9.894;2022-11-20T02:25:40;9.05;;;3.90;;
21780;SDS011;52576;53.614;9.894;2022-11-20T02:26:46;13.25;;;4.18;;
21780;SDS011;52576;53.614;9.894;2022-11-20T02:27:52;7.65;;;3.80;;
21780;SDS011;52576;53.614;9.894;2022-11-20T02:28:54;5.35;;;3.75;;
21780;SDS011;52576;53.614;9.894;2022-11-20T02:29:57;7.03;;;3.80;;
21780;SDS011;52576;53.614;9.894;2022-11-20T02:31:03;8.43;;;3.90;;
21780;SDS011;52576;53.614;9.894;2022-11-20T02:32:06;8.82;;;3.88;;
21780;SDS011;52576;53.614;9.894;2022-11-20T02:33:09;7.47;;;3.85;;
21780;SDS011;52576;53.614;9.894;2022-11-20T02:34:11;6.88;;;3.55;;
21780;SDS011;52576;53.614;9.894;2022-11-20T02:36:42;6.72;;;3.42;;
21780;SDS011;52576;53.614;9.894;2022-11-20T02:37:46;6.15;;;3.65;;
21780;SDS011;52576;53.614;9.894;2022-11-20T02:38:50;6.35;;;3.53;;
21780;SDS011;52576;53.614;9.894;2022-11-20T02:39:55;4.82;;;3.42;;
21780;SDS011;52576;53.614;9.894;2022-11-20T02:40:57;9.50;;;3.88;;
21780;SDS011;52576;53.614;9.894;2022-11-20T02:42:01;6.10;;;3.80;;
21780;SDS011;52576;53.614;9.894;2022-11-20T02:43:03;8.23;;;3.67;;
21780;SDS011;52576;53.614;9.894;2022-11-20T02:44:07;6.43;;;3.58;;
21780;SDS011;52576;53.614;9.894;2022-11-20T02:45:09;8.40;;;3.80;;
21780;SDS011;52576;53.614;9.894;2022-11-20T02:46:13;4.32;;;3.33;;
21780;SDS011;52576;53.614;9.894;2022-11-20T02:47:15;6.35;;;3.80;;
21780;SDS011;52576;53.614;9.894;2022-11-20T02:48:18;9.57;;;4.00;;
21780;SDS011;52576;53.614;9.894;2022-11-20T02:49:20;6.32;;;3.63;;
21780;SDS011;52576;53.614;9.894;2022-11-20T02:50:24;7.68;;;4.18;;
21780;SDS011;52576;53.614;9.894;2022-11-20T02:51:26;7.80;;;4.30;;
21780;SDS011;52576;53.614;9.894;2022-11-20T02:52:29;5.32;;;3.42;;
21780;SDS011;52576;53.614;9.894;2022-11-20T02:53:32;6.78;;;3.78;;
21780;SDS011;52576;53.614;9.894;2022-11-20T02:54:35;8.00;;;3.75;;
21780;SDS011;52576;53.614;9.894;2022-11-20T02:55:39;6.10;;;3.90;;
21780;SDS011;52576;53.614;9.894;2022-11-20T02:56:42;6.88;;;3.80;;
21780;SDS011;52576;53.614;9.894;2022-11-20T02:57:44;8.13;;;4.40;;
21780;SDS011;52576;53.614;9.894;2022-11-20T02:58:48;5.68;;;3.63;;
21780;SDS011;52576;53.614;9.894;2022-11-20T02:59:50;6.05;;;3.75;;
21780;SDS011;52576;53.614;9.894;2022-11-20T03:00:53;10.90;;;4.13;;
21780;SDS011;52576;53.614;9.894;2022-11-20T03:01:57;6.20;;;3.60;;
21780;SDS011;52576;53.614;9.894;2022-11-20T03:03:00;5.68;;;3.63;;
21780;SDS011;52576;53.614;9.894;2022-11-20T03:04:03;4.88;;;3.63;;
21780;SDS011;52576;53.614;9.894;2022-11-20T03:05:06;5.88;;;3.88;;
21780;SDS011;52576;53.614;9.894;2022-11-20T03:06:09;8.75;;;3.90;;
21780;SDS011;52576;53.614;9.894;2022-11-20T03:07:13;4.90;;;3.30;;
21780;SDS011;52576;53.614;9.894;2022-11-20T03:08:15;6.28;;;3.60;;
21780;SDS011;52576;53.614;9.894;2022-11-20T03:09:18;10.05;;;3.90;;
21780;SDS011;52576;53.614;9.894;2022-11-20T03:10:20;6.32;;;3.38;;
21780;SDS011;52576;53.614;9.894;2022-11-20T03:11:25;9.35;;;4.10;;
21780;SDS011;52576;53.614;9.894;2022-11-20T03:12:27;8.48;;;3.75;;
21780;SDS011;52576;53.614;9.894;2022-11-20T03:13:30;6.22;;;3.80;;
21780;SDS011;52576;53.614;9.894;2022-11-20T03:14:32;11.13;;;3.70;;
21780;SDS011;52576;53.614;9.894;2022-11-20T03:15:35;7.35;;;3.80;;
21780;SDS011;52576;53.614;9.894;2022-11-20T03:16:38;7.07;;;3.95;;
21780;SDS011;52576;53.614;9.894;2022-11-20T03:17:41;8.18;;;3.63;;
21780;SDS011;52576;53.614;9.894;2022-11-20T03:18:43;5.13;;;3.53;;
21780;SDS011;52576;53.614;9.894;2022-11-20T03:19:46;7.15;;;3.90;;
21780;SDS011;52576;53.614;9.894;2022-11-20T03:20:48;7.13;;;3.70;;
21780;SDS011;52576;53.614;9.894;2022-11-20T03:21:51;5.90;;;3.67;;
21780;SDS011;52576;53.614;9.894;2022-11-20T03:22:54;6.55;;;3.85;;
21780;SDS011;52576;53.614;9.894;2022-11-20T03:23:57;6.45;;;3.78;;
21780;SDS011;52576;53.614;9.894;2022-11-20T03:24:59;5.70;;;3.63;;
21780;SDS011;52576;53.614;9.894;2022-11-20T03:26:12;6.65;;;3.53;;
21780;SDS011;52576;53.614;9.894;2022-11-20T03:27:18;7.13;;;3.67;;
21780;SDS011;52576;53.614;9.894;2022-11-20T03:28:21;6.38;;;3.28;;
21780;SDS011;52576;53.614;9.894;2022-11-20T03:29:23;5.22;;;3.70;;
21780;SDS011;52576;53.614;9.894;2022-11-20T03:30:26;7.50;;;3.30;;
21780;SDS011;52576;53.614;9.894;2022-11-20T03:31:32;5.15;;;3.80;;
21780;SDS011;52576;53.614;9.894;2022-11-20T03:32:36;7.55;;;3.97;;
21780;SDS011;52576;53.614;9.894;2022-11-20T03:33:38;5.82;;;3.85;;
21780;SDS011;52576;53.614;9.894;2022-11-20T03:34:42;7.75;;;4.03;;
21780;SDS011;52576;53.614;9.894;2022-11-20T03:35:44;5.47;;;3.60;;
21780;SDS011;52576;53.614;9.894;2022-11-20T03:36:47;6.72;;;3.75;;
21780;SDS011;52576;53.614;9.894;2022-11-20T03:37:49;8.10;;;3.83;;
21780;SDS011;52576;53.614;9.894;2022-11-20T03:38:52;5.85;;;3.60;;
21780;SDS011;52576;53.614;9.894;2022-11-20T03:39:55;6.80;;;3.97;;
21780;SDS011;52576;53.614;9.894;2022-11-20T03:40:59;6.80;;;4.10;;
21780;SDS011;52576;53.614;9.894;2022-11-20T03:42:02;8.27;;;4.18;;
21780;SDS011;52576;53.614;9.894;2022-11-20T03:43:26;10.55;;;4.10;;
21780;SDS011;52576;53.614;9.894;2022-11-20T03:44:29;11.00;;;4.00;;
21780;SDS011;52576;53.614;9.894;2022-11-20T03:45:32;5.82;;;3.90;;
21780;SDS011;52576;53.614;9.894;2022-11-20T03:46:34;6.57;;;4.10;;
21780;SDS011;52576;53.614;9.894;2022-11-20T03:47:37;9.20;;;4.22;;
21780;SDS011;52576;53.614;9.894;2022-11-20T03:48:39;7.47;;;4.10;;
21780;SDS011;52576;53.614;9.894;2022-11-20T03:49:42;8.80;;;3.80;;
21780;SDS011;52576;53.614;9.894;2022-11-20T03:50:44;8.40;;;4.90;;
21780;SDS011;52576;53.614;9.894;2022-11-20T03:51:49;7.35;;;4.30;;
21780;SDS011;52576;53.614;9.894;2022-11-20T03:52:51;6.75;;;4.10;;
21780;SDS011;52576;53.614;9.894;2022-11-20T03:53:54;8.50;;;4.25;;
21780;SDS011;52576;53.614;9.894;2022-11-20T03:54:57;7.55;;;4.10;;
21780;SDS011;52576;53.614;9.894;2022-11-20T03:56:00;6.15;;;4.13;;
21780;SDS011;52576;53.614;9.894;2022-11-20T03:57:03;6.57;;;4.05;;
21780;SDS011;52576;53.614;9.894;2022-11-20T03:58:06;6.88;;;4.10;;
21780;SDS011;52576;53.614;9.894;2022-11-20T03:59:10;7.35;;;4.13;;
21780;SDS011;52576;53.614;9.894;2022-11-20T04:01:17;7.47;;;3.97;;
21780;SDS011;52576;53.614;9.894;2022-11-20T04:02:21;6.10;;;4.00;;
21780;SDS011;52576;53.614;9.894;2022-11-20T04:03:24;11.23;;;4.15;;
21780;SDS011;52576;53.614;9.894;2022-11-20T04:04:28;6.30;;;4.05;;
21780;SDS011;52576;53.614;9.894;2022-11-20T04:05:30;8.95;;;4.40;;
21780;SDS011;52576;53.614;9.894;2022-11-20T04:06:36;6.30;;;3.97;;
21780;SDS011;52576;53.614;9.894;2022-11-20T04:07:40;8.05;;;3.90;;
21780;SDS011;52576;53.614;9.894;2022-11-20T04:08:42;7.00;;;4.05;;
21780;SDS011;52576;53.614;9.894;2022-11-20T04:09:51;9.80;;;4.07;;
21780;SDS011;52576;53.614;9.894;2022-11-20T04:10:53;8.25;;;4.20;;
21780;SDS011;52576;53.614;9.894;2022-11-20T04:11:56;6.05;;;3.92;;
21780;SDS011;52576;53.614;9.894;2022-11-20T04:12:58;8.50;;;4.00;;
21780;SDS011;52576;53.614;9.894;2022-11-20T04:14:02;7.70;;;3.97;;
21780;SDS011;52576;53.614;9.894;2022-11-20T04:15:08;8.27;;;4.38;;
21780;SDS011;52576;53.614;9.894;2022-11-20T04:16:11;7.15;;;3.88;;
21780;SDS011;52576;53.614;9.894;2022-11-20T04:17:13;6.50;;;4.03;;
21780;SDS011;52576;53.614;9.894;2022-11-20T04:18:16;7.47;;;4.13;;
21780;SDS011;52576;53.614;9.894;2022-11-20T04:19:18;6.72;;;4.25;;
21780;SDS011;52576;53.614;9.894;2022-11-20T04:20:22;7.35;;;4.32;;
21780;SDS011;52576;53.614;9.894;2022-11-20T04:21:24;7.40;;;3.60;;
21780;SDS011;52576;53.614;9.894;2022-11-20T04:22:28;6.22;;;3.90;;
21780;SDS011;52576;53.614;9.894;2022-11-20T04:23:30;13.13;;;4.00;;
21780;SDS011;52576;53.614;9.894;2022-11-20T04:24:33;7.15;;;4.53;;
21780;SDS011;52576;53.614;9.894;2022-11-20T04:25:35;8.35;;;3.90;;
21780;SDS011;52576;53.614;9.894;2022-11-20T04:26:38;10.43;;;4.13;;
21780;SDS011;52576;53.614;9.894;2022-11-20T04:27:41;8.88;;;3.90;;
21780;SDS011;52576;53.614;9.894;2022-11-20T04:28:44;8.23;;;4.20;;
21780;SDS011;52576;53.614;9.894;2022-11-20T04:29:46;8.13;;;4.45;;
21780;SDS011;52576;53.614;9.894;2022-11-20T04:30:51;6.28;;;3.95;;
21780;SDS011;52576;53.614;9.894;2022-11-20T04:31:53;8.50;;;4.38;;
21780;SDS011;52576;53.614;9.894;2022-11-20T04:32:56;8.63;;;4.30;;
21780;SDS011;52576;53.614;9.894;2022-11-20T04:33:58;6.38;;;4.20;;
21780;SDS011;52576;53.614;9.894;2022-11-20T04:35:02;6.55;;;4.10;;
21780;SDS011;52576;53.614;9.894;2022-11-20T04:36:05;7.03;;;4.38;;
21780;SDS011;52576;53.614;9.894;2022-11-20T04:37:12;9.57;;;3.90;;
21780;SDS011;52576;53.614;9.894;2022-11-20T04:38:14;8.10;;;4.30;;
21780;SDS011;52576;53.614;9.894;2022-11-20T04:39:17;5.75;;;3.70;;
21780;SDS011;52576;53.614;9.894;2022-11-20T04:40:20;5.22;;;4.00;;
21780;SDS011;52576;53.614;9.894;2022-11-20T04:41:24;6.50;;;4.22;;
21780;SDS011;52576;53.614;9.894;2022-11-20T04:42:27;6.75;;;4.10;;
21780;SDS011;52576;53.614;9.894;2022-11-20T04:43:31;7.57;;;3.72;;
21780;SDS011;52576;53.614;9.894;2022-11-20T04:44:33;6.05;;;4.00;;
21780;SDS011;52576;53.614;9.894;2022-11-20T04:45:37;7.55;;;3.95;;
21780;SDS011;52576;53.614;9.894;2022-11-20T04:46:40;5.72;;;3.90;;
21780;SDS011;52576;53.614;9.894;2022-11-20T04:47:44;6.68;;;3.92;;
21780;SDS011;52576;53.614;9.894;2022-11-20T04:48:46;6.50;;;3.88;;
21780;SDS011;52576;53.614;9.894;2022-11-20T04:49:50;6.38;;;3.80;;
21780;SDS011;52576;53.614;9.894;2022-11-20T04:50:52;5.45;;;3.50;;
21780;SDS011;52576;53.614;9.894;2022-11-20T04:51:56;7.10;;;3.92;;
21780;SDS011;52576;53.614;9.894;2022-11-20T04:52:58;8.23;;;4.05;;
21780;SDS011;52576;53.614;9.894;2022-11-20T04:54:01;7.60;;;4.38;;
21780;SDS011;52576;53.614;9.894;2022-11-20T04:55:04;8.85;;;3.85;;
21780;SDS011;52576;53.614;9.894;2022-11-20T04:56:08;4.80;;;3.75;;
21780;SDS011;52576;53.614;9.894;2022-11-20T04:57:12;6.80;;;4.00;;
21780;SDS011;52576;53.614;9.894;2022-11-20T04:58:17;5.55;;;3.80;;
21780;SDS011;52576;53.614;9.894;2022-11-20T04:59:19;10.68;;;4.50;;
21780;SDS011;52576;53.614;9.894;2022-11-20T05:00:22;6.53;;;4.10;;
21780;SDS011;52576;53.614;9.894;2022-11-20T05:01:25;7.43;;;3.88;;
21780;SDS011;52576;53.614;9.894;2022-11-20T05:02:30;7.63;;;3.92;;
21780;SDS011;52576;53.614;9.894;2022-11-20T05:03:33;9.45;;;4.10;;
21780;SDS011;52576;53.614;9.894;2022-11-20T05:04:42;8.93;;;4.03;;
21780;SDS011;52576;53.614;9.894;2022-11-20T05:05:45;11.32;;;4.35;;
21780;SDS011;52576;53.614;9.894;2022-11-20T05:06:47;6.38;;;4.03;;
21780;SDS011;52576;53.614;9.894;2022-11-20T05:07:52;8.63;;;4.80;;
21780;SDS011;52576;53.614;9.894;2022-11-20T05:08:54;5.93;;;4.20;;
21780;SDS011;52576;53.614;9.894;2022-11-20T05:09:57;5.45;;;4.13;;
21780;SDS011;52576;53.614;9.894;2022-11-20T05:10:59;6.05;;;4.28;;
21780;SDS011;52576;53.614;9.894;2022-11-20T05:12:03;6.15;;;4.25;;
21780;SDS011;52576;53.614;9.894;2022-11-20T05:13:05;5.20;;;3.60;;
21780;SDS011;52576;53.614;9.894;2022-11-20T05:14:08;4.93;;;3.92;;
21780;SDS011;52576;53.614;9.894;2022-11-20T05:15:11;9.52;;;4.72;;
21780;SDS011;52576;53.614;9.894;2022-11-20T05:16:14;7.22;;;4.20;;
21780;SDS011;52576;53.614;9.894;2022-11-20T05:17:18;5.40;;;4.32;;
21780;SDS011;52576;53.614;9.894;2022-11-20T05:18:23;7.63;;;4.38;;
21780;SDS011;52576;53.614;9.894;2022-11-20T05:19:25;9.68;;;4.00;;
21780;SDS011;52576;53.614;9.894;2022-11-20T05:20:28;11.32;;;4.25;;
21780;SDS011;52576;53.614;9.894;2022-11-20T05:21:30;8.05;;;4.25;;
21780;SDS011;52576;53.614;9.894;2022-11-20T05:22:33;8.10;;;4.43;;
21780;SDS011;52576;53.614;9.894;2022-11-20T05:23:35;10.02;;;4.43;;
21780;SDS011;52576;53.614;9.894;2022-11-20T05:24:39;6.90;;;4.13;;
21780;SDS011;52576;53.614;9.894;2022-11-20T05:25:41;7.03;;;4.10;;
21780;SDS011;52576;53.614;9.894;2022-11-20T05:26:44;9.43;;;4.70;;
21780;SDS011;52576;53.614;9.894;2022-11-20T05:27:47;8.23;;;4.45;;
21780;SDS011;52576;53.614;9.894;2022-11-20T05:28:50;6.85;;;4.45;;
21780;SDS011;52576;53.614;9.894;2022-11-20T05:29:52;5.35;;;4.05;;
21780;SDS011;52576;53.614;9.894;2022-11-20T05:30:55;6.25;;;4.18;;
21780;SDS011;52576;53.614;9.894;2022-11-20T05:31:57;6.45;;;4.55;;
21780;SDS011;52576;53.614;9.894;2022-11-20T05:33:00;6.25;;;4.22;;
21780;SDS011;52576;53.614;9.894;2022-11-20T05:34:04;7.35;;;4.18;;
21780;SDS011;52576;53.614;9.894;2022-11-20T05:35:07;7.68;;;4.13;;
21780;SDS011;52576;53.614;9.894;2022-11-20T05:36:09;6.07;;;3.95;;
21780;SDS011;52576;53.614;9.894;2022-11-20T05:37:13;10.85;;;4.40;;
21780;SDS011;52576;53.614;9.894;2022-11-20T05:38:15;6.10;;;3.70;;
21780;SDS011;52576;53.614;9.894;2022-11-20T05:39:18;6.95;;;4.00;;
21780;SDS011;52576;53.614;9.894;2022-11-20T05:40:21;6.43;;;3.90;;
21780;SDS011;52576;53.614;9.894;2022-11-20T05:41:24;6.70;;;3.90;;
21780;SDS011;52576;53.614;9.894;2022-11-20T05:42:29;7.15;;;4.43;;
21780;SDS011;52576;53.614;9.894;2022-11-20T05:43:33;8.93;;;4.40;;
21780;SDS011;52576;53.614;9.894;2022-11-20T05:44:36;6.55;;;4.30;;
21780;SDS011;52576;53.614;9.894;2022-11-20T05:45:39;10.65;;;4.43;;
21780;SDS011;52576;53.614;9.894;2022-11-20T05:46:41;8.75;;;4.10;;
21780;SDS011;52576;53.614;9.894;2022-11-20T05:47:44;7.97;;;4.18;;
21780;SDS011;52576;53.614;9.894;2022-11-20T05:48:46;8.00;;;4.50;;
21780;SDS011;52576;53.614;9.894;2022-11-20T05:49:50;8.32;;;4.40;;
21780;SDS011;52576;53.614;9.894;2022-11-20T05:50:53;7.88;;;4.07;;
21780;SDS011;52576;53.614;9.894;2022-11-20T05:51:56;8.00;;;3.85;;
21780;SDS011;52576;53.614;9.894;2022-11-20T05:52:58;5.55;;;4.00;;
21780;SDS011;52576;53.614;9.894;2022-11-20T05:54:01;6.47;;;4.20;;
21780;SDS011;52576;53.614;9.894;2022-11-20T05:55:04;6.75;;;4.20;;
21780;SDS011;52576;53.614;9.894;2022-11-20T05:56:09;7.50;;;3.92;;
21780;SDS011;52576;53.614;9.894;2022-11-20T05:57:12;7.07;;;3.75;;
21780;SDS011;52576;53.614;9.894;2022-11-20T05:58:15;6.13;;;4.18;;
21780;SDS011;52576;53.614;9.894;2022-11-20T05:59:17;7.20;;;4.28;;
21780;SDS011;52576;53.614;9.894;2022-11-20T06:00:21;7.97;;;4.20;;
21780;SDS011;52576;53.614;9.894;2022-11-20T06:01:24;7.47;;;4.90;;
21780;SDS011;52576;53.614;9.894;2022-11-20T06:02:28;9.15;;;4.97;;
21780;SDS011;52576;53.614;9.894;2022-11-20T06:03:30;6.60;;;4.80;;
21780;SDS011;52576;53.614;9.894;2022-11-20T06:04:33;7.18;;;5.03;;
21780;SDS011;52576;53.614;9.894;2022-11-20T06:05:37;6.75;;;4.80;;
21780;SDS011;52576;53.614;9.894;2022-11-20T06:06:39;8.80;;;4.85;;
21780;SDS011;52576;53.614;9.894;2022-11-20T06:07:42;9.05;;;5.05;;
21780;SDS011;52576;53.614;9.894;2022-11-20T06:08:45;8.60;;;5.00;;
21780;SDS011;52576;53.614;9.894;2022-11-20T06:09:48;7.05;;;4.50;;
21780;SDS011;52576;53.614;9.894;2022-11-20T06:10:50;7.82;;;5.07;;
21780;SDS011;52576;53.614;9.894;2022-11-20T06:11:53;7.10;;;5.20;;
21780;SDS011;52576;53.614;9.894;2022-11-20T06:12:56;9.07;;;5.75;;
21780;SDS011;52576;53.614;9.894;2022-11-20T06:14:00;10.70;;;5.90;;
21780;SDS011;52576;53.614;9.894;2022-11-20T06:15:02;11.73;;;6.30;;
21780;SDS011;52576;53.614;9.894;2022-11-20T06:16:05;13.52;;;6.60;;
21780;SDS011;52576;53.614;9.894;2022-11-20T06:17:08;9.38;;;6.57;;
21780;SDS011;52576;53.614;9.894;2022-11-20T06:18:11;10.00;;;6.25;;
21780;SDS011;52576;53.614;9.894;2022-11-20T06:19:13;11.60;;;7.03;;
21780;SDS011;52576;53.614;9.894;2022-11-20T06:20:16;8.95;;;6.53;;
21780;SDS011;52576;53.614;9.894;2022-11-20T06:21:20;11.23;;;6.82;;
21780;SDS011;52576;53.614;9.894;2022-11-20T06:22:24;9.15;;;6.32;;
21780;SDS011;52576;53.614;9.894;2022-11-20T06:23:27;10.32;;;6.43;;
21780;SDS011;52576;53.614;9.894;2022-11-20T06:24:31;9.85;;;6.15;;
21780;SDS011;52576;53.614;9.894;2022-11-20T06:25:33;9.52;;;5.75;;
21780;SDS011;52576;53.614;9.894;2022-11-20T06:26:40;11.27;;;6.50;;
21780;SDS011;52576;53.614;9.894;2022-11-20T06:27:42;9.98;;;6.28;;